• Join FlightAware (Why Join?)
  • Login
  • US Flag 
12:29AM EDT


 

Airport Tracker/Info


-or-


 

Live Flight TrackerFlight Track Log ✈ N384GD ✈ 29-Oct-2013 ✈ KPWG - KHRL

Flight Track Log - Related Links

Times and Time Zones

All times are in EDT time to prevent confusion due to time zone crossing. See the N384GD flight status page for this flight to view local times or setup timezone preferences in your user account.

Time Position Orientation Groundspeed Altitude Reporting Facility
EDT Latitude Longitude Course Direction KTS MPH feet Rate Location/Type
09:55AM 31.4625 -97.3022 55° Northeast 163 188 1,700  Level Houston Center
09:56AM 31.4964 -97.2461 55° Northeast 224 258 3,600 1,800 Climbing Houston Center
09:57AM 31.4669 -97.2117 135° Southeast 180 207 5,500 1,980 Climbing Houston Center
09:58AM 31.4211 -97.2139 182° South 165 190 7,800 1,800 Climbing Houston Center
09:59AM 31.3697 -97.2206 186° South 179 206 9,300 1,440 Climbing Houston Center
10:00AM 31.3086 -97.2250 184° South 206 237 10,800 1,440 Climbing Houston Center
10:01AM 31.2447 -97.2311 185° South 222 255 12,300 1,500 Climbing Houston Center
10:02AM 31.1786 -97.2364 184° South 232 267 13,900 1,500 Climbing Houston Center
10:03AM 31.1244 -97.2664 205° Southwest 230 265 15,400 1,500 Climbing Houston Center
10:04AM 31.0758 -97.3253 226° Southwest 217 250 17,100 1,500 Climbing Houston Center
10:05AM 31.0344 -97.3739 225° Southwest 213 245 18,500 1,320 Climbing Houston Center
10:07AM 30.9950 -97.4200 225° Southwest 203 234 19,900 1,200 Climbing Houston Center
10:08AM 30.9411 -97.4411 199° South 214 246 21,000 960 Climbing Houston Center
10:09AM 30.8792 -97.4444 183° South 222 255 22,000 960 Climbing Houston Center
10:10AM 30.8050 -97.4483 183° South 226 260 23,000 480 Climbing Houston Center
10:11AM 30.7353 -97.4514 182° South 246 283 23,000  Level Houston Center
10:12AM 30.6603 -97.4550 182° South 266 306 23,000  Level Houston Center
10:13AM 30.5831 -97.4583 182° South 274 315 23,000  Level Houston Center
10:14AM 30.5044 -97.4619 182° South 278 320 23,000  Level Houston Center
10:15AM 30.4269 -97.4647 182° South 278 320 23,000  Level Houston Center
10:16AM 30.3353 -97.4706 183° South 278 320 23,000  Level Houston Center
10:17AM 30.2567 -97.4744 182° South 280 322 23,000  Level Houston Center
10:18AM 30.1778 -97.4778 182° South 280 322 23,000  Level Houston Center
10:19AM 30.0997 -97.4808 182° South 279 321 23,000  Level Houston Center
10:20AM 30.0231 -97.4842 182° South 276 318 23,000  Level Houston Center
10:21AM 29.9456 -97.4881 182° South 278 320 23,000  Level Houston Center
10:22AM 29.8683 -97.4919 183° South 276 318 23,000  Level Houston Center
10:23AM 29.7764 -97.4958 182° South 276 318 23,000  Level Houston Center
10:24AM 29.6994 -97.4997 183° South 276 318 23,000  Level Houston Center
10:25AM 29.6231 -97.5033 182° South 276 318 23,000  Level Houston Center
10:26AM 29.5464 -97.5067 182° South 276 318 23,000  Level Houston Center
10:27AM 29.4700 -97.5094 182° South 276 318 23,000  Level Houston Center
10:28AM 29.3936 -97.5128 182° South 276 318 23,000  Level Houston Center
10:29AM 29.3022 -97.5172 182° South 274 315 23,000  Level Houston Center
10:30AM 29.2261 -97.5206 182° South 275 316 23,000  Level Houston Center
10:31AM 29.1500 -97.5244 183° South 275 316 23,000  Level Houston Center
10:32AM 29.0736 -97.5269 182° South 277 319 23,000  Level Houston Center
10:33AM 28.9975 -97.5308 183° South 274 315 23,000  Level Houston Center
10:34AM 28.9072 -97.5344 182° South 271 312 23,000  Level Houston Center
10:35AM 28.8308 -97.5381 182° South 273 314 23,000  Level Houston Center
10:36AM 28.7544 -97.5417 182° South 274 315 23,000  Level Houston Center
10:38AM 28.6792 -97.5467 183° South 271 312 23,000  Level Houston Center
10:39AM 28.6014 -97.5486 181° South 276 318 23,000  Level Houston Center
10:40AM 28.5247 -97.5528 183° South 276 318 23,000  Level Houston Center
10:41AM 28.4339 -97.5567 182° South 273 314 23,000  Level Houston Center
10:42AM 28.3578 -97.5603 182° South 274 315 23,000  Level Houston Center
10:43AM 28.2814 -97.5631 182° South 275 316 23,000  Level Houston Center
10:44AM 28.2056 -97.5675 183° South 273 314 23,000  Level Houston Center
10:45AM 28.1294 -97.5700 182° South 274 315 23,000  Level Houston Center
10:46AM 28.0383 -97.5742 182° South 274 315 23,000  Level Houston Center
10:47AM 27.9625 -97.5781 183° South 274 315 23,000  Level Houston Center
10:48AM 27.8931 -97.5806 182° South 277 319 23,000  Level Houston Center
10:49AM 27.8008 -97.5842 182° South 276 318 23,000  Level Houston Center
10:50AM 27.7256 -97.5886 183° South 273 314 23,000 -180 Level Houston Center
10:51AM 27.6481 -97.5919 182° South 277 319 22,700 -660 Descending Houston Center
10:52AM 27.5667 -97.5958 182° South 288 331 21,700 -1,020 Descending Houston Center
10:53AM 27.4806 -97.5992 182° South 303 349 20,700 -1,020 Descending Houston Center
10:54AM 27.3969 -97.6033 183° South 302 348 19,600 -1,020 Descending Houston Center
10:55AM 27.3122 -97.6078 183° South 304 350 18,600 -1,080 Descending Houston Center
10:56AM 27.2114 -97.6122 182° South 302 348 17,500 -1,020 Descending Houston Center
10:57AM 27.1219 -97.6169 183° South 311 358 16,500 -720 Descending Houston Center
10:58AM 27.0369 -97.6206 182° South 308 354 16,000 -300 Descending Houston Center
10:59AM 26.9519 -97.6242 182° South 283 326 16,000  Level Houston Center
11:00AM 26.8747 -97.6278 182° South 277 319 16,000  Level Houston Center
11:00AM 26.8678 -97.6281 182° South 278 320 16,000  Level Houston Center
11:01AM 26.7964 -97.6317 183° South 280 322 16,000  Level Houston Center
11:01AM 26.7903 -97.6314 178° South 281 323 16,000 -780 Level Houston Center
11:02AM 26.7111 -97.6336 181° South 283 326 15,200 -1,020 Descending Houston Center
11:03AM 26.6958 -97.6347 184° South 288 331 14,800 -1,800 Descending Houston Center
11:03AM 26.6311 -97.6461 189° South 290 334 13,400 -1,920 Descending Houston Center
11:04AM 26.6142 -97.6575 211° Southwest 286 329 12,900 -2,460 Descending Houston Center
11:05AM 26.5461 -97.6900 203° Southwest 261 300 10,500 -2,400 Descending Houston Center
11:05AM 26.4953 -97.7206 208° Southwest 245 282 8,400 -2,460 Descending Houston Center
11:06AM 26.4847 -97.7261 205° Southwest 246 283 8,000 -2,640 Descending Houston Center
11:06AM 26.4336 -97.7606 211° Southwest 238 274 5,700 -2,460 Descending Houston Center
11:07AM 26.4278 -97.7642 209° Southwest 236 272 5,500 -2,520 Descending Houston Center
11:08AM 26.3714 -97.7858 199° South 219 252 2,900 -1,800 Descending Houston Center
11:09AM 26.3286 -97.7669 158° South 188 216 2,000 -900 Descending Houston Center
11:09AM 26.3225 -97.7619 144° Southeast 163 188 2,000 -240 Level Houston Center
11:10AM 26.2964 -97.7350 137° Southeast 144 166 1,800 -360 Descending Houston Center
11:10AM 26.2950 -97.7314 113° Southeast 156 180 1,700 -660 Descending Houston Center
11:11AM 26.2694 -97.7044 137° Southeast 137 158 1,100 -660 Descending Houston Center
11:12AM 26.2464 -97.6811 138° Southeast 106 122 500 -720 Descending Houston Center
11:12AM 26.2453 -97.6783 114° Southeast 111 128 400 -360 Descending Houston Center
11:13AM 26.2242 -97.6533 133° Southeast 107 123 100 -300 Descending Houston Center